x

Smith Island, Wa (sisw1) Weather Station

7:00am - Sun 21st Dec 2014 All times are PST. -8 hours from GMT.

  • Wind
    21mph, 26mph gusts
  • Air Temp 49°f
  • Sea Pressure 1008.6mb
  • Smith Island, Wa
  • Smith Island, Wa

More Historic Weather Station data

Upgrade to MSW Pro to gain access to the past 30 days of data for over 8000 Wavebouys and Weather Stations around the globe.

Join Pro

Comparision Forecast

View Surf forecast
   
Sun 12/21 7:00am 21 26 mph 1008.6mb 49f
6:00am 22 28 mph 1007.6mb 49f
5:00am 22 29 mph 1006.3mb 48f
4:00am 28 32 mph 1006.2mb 48f
3:00am 26 39 mph 1004.3mb 51f
2:00am 26 34 mph 1003mb 51f
1:00am 30 37 mph 1001mb 51f
12:00am 28 36 mph 998.7mb 51f
Sat 12/20 11:00pm 7 10 mph 997.5mb 50f
10:00pm 10 11 mph 995.8mb 50f
9:00pm 13 14 mph 995.4mb 50f
8:00pm 16 17 mph 995.2mb 50f
7:00pm 22 24 mph 994.8mb 49f
6:00pm 30 34 mph 994.6mb 49f
5:00pm 38 43 mph 993.8mb 50f
4:00pm 33 37 mph 994.3mb 49f
3:00pm 33 39 mph 995.8mb 49f
2:00pm 32 36 mph 996.4mb 49f
1:00pm 28 31 mph 997.2mb 49f
12:00pm 31 37 mph 998.4mb 49f
11:00am 34 38 mph 999.7mb 48f
10:00am 28 31 mph 1000.8mb 48f
9:00am 31 34 mph 1000.6mb 47f
8:00am 40 48 mph 1000.7mb 48f
7:00am 41 45 mph 1001mb 48f
6:00am 37 43 mph 1001.9mb 48f
5:00am 36 40 mph 1002.6mb 48f
4:00am 32 36 mph 1004.1mb 47f
3:00am 40 47 mph 1005.1mb 47f
2:00am 40 46 mph 1006.1mb 47f
1:00am 37 41 mph 1007.4mb 49f
12:00am 28 32 mph 1008.7mb 49f
Fri 12/19 11:00pm 28 31 mph 1009.4mb 49f
10:00pm 33 39 mph 1009.1mb 49f
9:00pm 41 44 mph 1009.5mb 48f
8:00pm 33 38 mph 1010.8mb 49f
7:00pm 33 39 mph 1011.4mb 48f
6:00pm 29 32 mph 1012.2mb 49f
5:00pm 28 30 mph 1011.9mb 48f
4:00pm 25 28 mph 1012.2mb 48f
3:00pm 20 21 mph 1012.1mb 49f
2:00pm 22 25 mph 1012mb 49f
1:00pm 20 22 mph 1012.1mb 50f
12:00pm 15 16 mph 1012.2mb 48f
11:00am 17 18 mph 1012.4mb 47f
10:00am 14 16 mph 1011.8mb 48f
9:00am 6 7 mph 1011mb 46f
8:00am 5 6 mph 1010.1mb 46f
7:00am 15 17 mph 1009.3mb 47f
6:00am 14 16 mph 1008.8mb 48f
5:00am 10 11 mph 1008.1mb 48f
4:00am 20 21 mph 1007.7mb 48f
3:00am 17 20 mph 1007.4mb 48f
2:00am 22 24 mph 1007mb 49f
1:00am 22 24 mph 1006.1mb 49f
12:00am 22 24 mph 1006mb 49f
Thu 12/18 11:00pm 20 22 mph 1005.7mb 49f
10:00pm 40 46 mph 1003.8mb 50f
9:00pm 33 36 mph 1003.2mb 49f
8:00pm 36 38 mph 1003.9mb 49f
7:00pm 41 46 mph 1003.8mb 50f
6:00pm 34 38 mph 1004.6mb 50f
5:00pm 34 40 mph 1005mb 49f
4:00pm 40 47 mph 1005.2mb 50f
3:00pm 32 37 mph 1006.4mb 49f
2:00pm 29 32 mph 1007.4mb 49f
1:00pm 29 31 mph 1008.1mb 49f
12:00pm 24 26 mph 1009.3mb 48f
11:00am 30 32 mph 1010.7mb 49f
10:00am 25 29 mph 1011.4mb 48f
9:00am 21 22 mph 1011.7mb 47f
8:00am 18 22 mph 1011.8mb 47f
7:00am 10 11 mph 1012.6mb 47f
6:00am 15 16 mph 1012.7mb 46f
5:00am 16 17 mph 1012.7mb 46f
4:00am 14 16 mph 1012.7mb 46f
3:00am 11 13 mph 1013mb 46f
2:00am 13 14 mph 1012.7mb 46f
1:00am 11 14 mph 1012.5mb 46f
12:00am 8 9 mph 1012.6mb 45f
Wed 12/17 11:00pm 9 10 mph 1012.4mb 46f
10:00pm 8 9 mph 1012.4mb 46f
9:00pm 9 10 mph 1012.4mb 46f
8:00pm 6 7 mph 1012.3mb 46f
7:00pm 7 8 mph 1012.1mb 46f
6:00pm 8 9 mph 1011.8mb 47f
5:00pm 7 8 mph 1011.3mb 47f